createdAt,value
2022-10-24T08:31:00.191Z,17.92
2022-10-24T08:33:02.846Z,17.77
2022-10-24T08:35:06.808Z,18.60
2022-10-24T08:37:09.367Z,19.10
2022-10-24T08:39:12.065Z,17.30
2022-10-24T08:41:20.827Z,19.65
2022-10-24T08:43:24.142Z,17.55
2022-10-24T08:45:38.810Z,18.33
2022-10-24T08:47:58.671Z,15.90
2022-10-24T08:50:16.675Z,16.98
2022-10-24T08:52:23.919Z,16.62
2022-10-24T08:54:34.313Z,18.42
2022-10-24T08:56:36.661Z,16.27
2022-10-24T08:58:43.355Z,16.12
2022-10-24T09:00:49.415Z,14.32
2022-10-24T09:03:56.016Z,13.93
2022-10-24T09:06:02.825Z,14.20
2022-10-24T09:08:23.028Z,14.25
2022-10-24T09:10:50.175Z,14.15
2022-10-24T09:12:52.874Z,14.35
2022-10-24T09:14:59.286Z,13.70
2022-10-24T09:17:11.170Z,13.20
2022-10-24T09:19:18.268Z,14.07
2022-10-24T09:21:22.396Z,13.43
2022-10-24T09:23:26.497Z,13.77
2022-10-24T09:25:33.356Z,12.18
2022-10-24T09:27:39.343Z,13.70
2022-10-24T09:29:42.406Z,13.88
2022-10-24T09:31:44.981Z,12.55
2022-10-24T09:33:49.522Z,13.48
2022-10-24T09:35:54.209Z,12.68
2022-10-24T09:38:18.535Z,12.52
2022-10-24T09:40:23.765Z,13.55
2022-10-24T09:42:25.987Z,12.35
2022-10-24T09:44:41.272Z,14.55
2022-10-24T09:46:45.984Z,13.25
2022-10-24T09:48:55.411Z,15.95
2022-10-24T09:50:59.673Z,14.15
2022-10-24T09:53:04.275Z,12.25
2022-10-24T09:55:28.824Z,13.90
2022-10-24T09:57:40.192Z,13.98
2022-10-24T09:59:57.802Z,15.52
2022-10-24T10:02:20.706Z,14.63
2022-10-24T10:04:23.294Z,13.43
2022-10-24T10:06:25.620Z,14.10
2022-10-24T10:08:31.288Z,16.08
2022-10-24T10:10:37.756Z,15.25
2022-10-24T10:12:42.527Z,14.60
2022-10-24T10:14:44.878Z,14.80
2022-10-24T10:17:02.104Z,16.58
2022-10-24T10:19:14.589Z,15.07
2022-10-24T10:21:23.280Z,15.88
2022-10-24T10:23:40.759Z,15.77
2022-10-24T10:25:43.215Z,15.40
2022-10-24T10:27:51.068Z,19.12
2022-10-24T10:30:11.731Z,16.98
2022-10-24T10:32:22.926Z,15.50
2022-10-24T10:34:40.628Z,15.77
2022-10-24T10:36:55.466Z,15.68
2022-10-24T10:39:19.913Z,15.55
2022-10-24T10:41:41.322Z,14.90
2022-10-24T10:43:49.860Z,14.57
2022-10-24T10:46:12.114Z,14.65
2022-10-24T10:48:29.188Z,16.80
2022-10-24T10:50:31.596Z,16.58
2022-10-24T10:52:45.509Z,14.40
2022-10-24T10:55:13.230Z,15.10
2022-10-24T10:57:21.624Z,14.07
2022-10-24T10:59:39.572Z,15.05
2022-10-24T11:02:11.541Z,16.20
2022-10-24T11:04:38.323Z,15.45
2022-10-24T11:07:02.959Z,15.73
2022-10-24T11:09:23.270Z,17.25
2022-10-24T11:11:31.618Z,16.83
2022-10-24T11:13:42.205Z,16.70
2022-10-24T11:15:49.827Z,15.30
2022-10-24T11:18:05.593Z,15.98
2022-10-24T11:20:15.007Z,15.95
2022-10-24T11:22:26.061Z,16.98
2022-10-24T11:24:34.209Z,16.20
2022-10-24T11:26:48.123Z,15.95
2022-10-24T11:29:09.401Z,16.33
2022-10-24T11:31:18.067Z,16.37
2022-10-24T11:33:32.496Z,19.02
2022-10-24T11:35:40.453Z,16.90
2022-10-24T11:37:49.707Z,17.12
2022-10-24T11:39:57.371Z,16.60
2022-10-24T11:42:07.658Z,17.52
2022-10-24T11:44:41.414Z,18.23
2022-10-24T11:46:51.846Z,22.40
2022-10-24T11:49:10.051Z,18.25
2022-10-24T11:51:22.380Z,17.33
2022-10-24T11:53:33.318Z,17.73
2022-10-24T11:57:46.304Z,17.05
2022-10-24T11:59:53.202Z,26.20
2022-10-24T12:01:55.482Z,18.87
2022-10-24T12:04:35.710Z,17.75
2022-10-24T12:07:05.335Z,19.05
2022-10-24T12:09:16.628Z,17.08
2022-10-24T12:11:22.025Z,17.62
2022-10-24T12:13:43.137Z,17.12
2022-10-24T12:16:09.160Z,17.45
2022-10-24T12:18:33.194Z,19.00
2022-10-24T12:20:37.012Z,18.77
2022-10-24T12:22:43.997Z,20.30
2022-10-24T12:24:46.763Z,18.80
2022-10-24T12:26:58.421Z,18.20
2022-10-24T12:29:23.358Z,18.40
2022-10-24T12:31:37.666Z,18.17
2022-10-24T12:33:40.552Z,17.85
2022-10-24T12:35:47.111Z,18.30
2022-10-24T12:37:49.345Z,18.12
2022-10-24T12:39:56.195Z,17.20
2022-10-24T12:42:01.119Z,18.30
2022-10-24T12:44:36.092Z,18.15
2022-10-24T12:46:38.460Z,17.25
2022-10-24T12:49:01.148Z,16.20
2022-10-24T12:51:06.257Z,17.48
2022-10-24T12:53:19.657Z,18.35
2022-10-24T12:55:39.639Z,17.20
2022-10-24T12:57:46.163Z,17.27
2022-10-24T12:59:52.989Z,17.50
2022-10-24T13:02:11.027Z,16.95
2022-10-24T13:04:55.696Z,22.83
2022-10-24T13:07:10.084Z,19.90
2022-10-24T13:10:00.355Z,16.10
2022-10-24T13:12:43.178Z,18.02
2022-10-24T13:14:51.260Z,17.45
2022-10-24T13:17:15.143Z,18.52
2022-10-24T13:19:24.281Z,17.35
2022-10-24T13:21:32.323Z,16.90
2022-10-24T13:23:35.915Z,15.88
2022-10-24T13:25:39.752Z,16.42
2022-10-24T13:27:42.060Z,14.73
2022-10-24T13:29:44.331Z,16.25
2022-10-24T13:31:48.318Z,15.70
2022-10-24T13:33:53.252Z,16.15
2022-10-24T13:36:18.097Z,17.40
2022-10-24T13:40:32.583Z,14.98
2022-10-24T13:42:43.382Z,16.65
2022-10-24T13:44:49.382Z,15.07
2022-10-24T13:47:18.307Z,14.65
2022-10-24T13:49:34.491Z,15.23
2022-10-24T13:51:49.100Z,15.43
2022-10-24T13:53:56.493Z,15.02
2022-10-24T13:56:10.416Z,16.30
2022-10-24T13:58:16.744Z,16.58
2022-10-24T14:00:33.085Z,14.93
2022-10-24T14:02:41.880Z,17.37
2022-10-24T14:04:47.343Z,15.88
2022-10-24T14:06:49.669Z,15.70
2022-10-24T14:09:05.499Z,17.77
2022-10-24T14:11:19.731Z,18.70
2022-10-24T14:13:27.095Z,15.73
2022-10-24T14:15:33.674Z,15.43
2022-10-24T14:17:36.022Z,14.35
2022-10-24T14:19:46.568Z,13.80
2022-10-24T14:21:49.761Z,14.38
2022-10-24T14:23:57.651Z,15.75
2022-10-24T14:26:03.679Z,14.82
2022-10-24T14:28:17.041Z,15.63
2022-10-24T14:30:22.685Z,17.23
2022-10-24T14:32:26.798Z,15.25
2022-10-24T14:34:35.223Z,15.73
2022-10-24T14:36:39.183Z,14.00
2022-10-24T14:38:42.006Z,14.73
2022-10-24T14:40:46.407Z,16.05
2022-10-24T14:42:49.393Z,15.65
2022-10-24T14:44:56.175Z,16.48
2022-10-24T14:47:03.616Z,15.55
2022-10-24T14:49:36.664Z,15.40
2022-10-24T14:51:41.490Z,15.15
2022-10-24T14:53:45.895Z,15.77
2022-10-24T14:55:53.097Z,14.50
2022-10-24T14:57:57.033Z,14.38
2022-10-24T15:00:07.546Z,16.83
2022-10-24T15:02:28.856Z,16.05
2022-10-24T15:04:38.827Z,14.77
2022-10-24T15:06:43.513Z,15.48
2022-10-24T15:08:50.535Z,15.73
2022-10-24T15:11:21.767Z,15.43
2022-10-24T15:13:25.565Z,15.93
2022-10-24T15:15:52.324Z,15.00
2022-10-24T15:18:22.670Z,17.12
2022-10-24T15:20:30.211Z,15.40
2022-10-24T15:22:37.643Z,18.02
2022-10-24T15:24:44.154Z,17.98
2022-10-24T15:26:47.115Z,16.45
2022-10-24T15:28:55.268Z,16.00
2022-10-24T15:30:57.541Z,19.10
2022-10-24T15:33:02.356Z,22.87
2022-10-24T15:35:05.107Z,18.12
2022-10-24T15:37:17.655Z,18.58
2022-10-24T15:39:24.622Z,17.02
2022-10-24T15:41:27.804Z,15.88
2022-10-24T15:43:30.128Z,16.55
2022-10-24T15:45:33.311Z,15.13
2022-10-24T15:47:35.547Z,14.82
2022-10-24T15:49:37.855Z,17.55
2022-10-24T15:51:46.016Z,15.30
2022-10-24T15:53:53.773Z,15.02
2022-10-24T15:55:56.029Z,15.75
2022-10-24T15:58:03.151Z,16.42
2022-10-24T16:00:05.875Z,16.08
2022-10-24T16:02:21.536Z,13.93
2022-10-24T16:04:24.268Z,15.07
2022-10-24T16:06:27.658Z,16.05
2022-10-24T16:08:30.607Z,19.85
2022-10-24T16:10:33.208Z,15.63
2022-10-24T16:12:35.512Z,15.55
2022-10-24T16:14:37.790Z,15.32
2022-10-24T16:16:40.542Z,19.12
2022-10-24T16:18:43.240Z,20.05
2022-10-24T16:20:45.543Z,15.18
2022-10-24T16:22:48.776Z,15.73
2022-10-24T16:24:51.207Z,15.07
2022-10-24T16:26:53.802Z,15.52
2022-10-24T16:28:56.383Z,15.30
2022-10-24T16:30:58.638Z,16.67
2022-10-24T16:33:01.452Z,15.75
2022-10-24T16:35:04.716Z,15.18
2022-10-24T16:37:06.936Z,15.40
2022-10-24T16:39:09.462Z,15.10
2022-10-24T16:41:20.702Z,18.87
2022-10-24T16:45:26.033Z,15.40
2022-10-24T16:47:29.708Z,15.77
2022-10-24T16:49:32.263Z,15.90
2022-10-24T16:51:37.331Z,16.40
2022-10-24T16:53:42.417Z,14.25
2022-10-24T16:55:53.008Z,16.83
2022-10-24T16:57:56.301Z,14.02
2022-10-24T16:59:58.893Z,13.70
2022-10-24T17:02:01.376Z,14.70
2022-10-24T17:04:03.824Z,15.00
2022-10-24T17:06:07.440Z,14.10
2022-10-24T17:08:10.229Z,13.52
2022-10-24T17:10:14.134Z,14.57
2022-10-24T17:12:17.261Z,16.08
2022-10-24T17:14:19.699Z,14.82
2022-10-24T17:16:22.197Z,14.05
2022-10-24T17:18:26.668Z,14.57
2022-10-24T17:20:29.152Z,14.98
2022-10-24T17:24:44.985Z,19.30
2022-10-24T17:26:48.689Z,16.00
2022-10-24T17:28:51.627Z,15.23
2022-10-24T17:30:54.383Z,16.50
2022-10-24T17:32:57.624Z,14.70
2022-10-24T17:35:03.272Z,15.57
2022-10-24T17:37:33.066Z,17.48
2022-10-24T17:39:50.115Z,18.02
2022-10-24T17:41:55.013Z,17.27
2022-10-24T17:43:57.820Z,17.05
2022-10-24T17:46:00.711Z,19.40
2022-10-24T17:48:03.119Z,19.45
2022-10-24T17:50:06.898Z,16.58
2022-10-24T17:52:16.669Z,17.23
2022-10-24T17:54:21.523Z,18.35
2022-10-24T17:56:25.946Z,17.90
2022-10-24T17:58:28.824Z,17.15
2022-10-24T18:00:31.672Z,18.20
2022-10-24T18:02:35.342Z,17.95
2022-10-24T18:04:40.936Z,17.00
2022-10-24T18:06:43.693Z,17.73
2022-10-24T18:08:48.224Z,18.62
2022-10-24T18:10:50.917Z,20.50
2022-10-24T18:12:53.738Z,24.63
2022-10-24T18:14:59.413Z,22.27
2022-10-24T18:17:02.110Z,21.90
2022-10-24T18:19:09.956Z,21.05
2022-10-24T18:21:22.979Z,21.50
2022-10-24T18:23:25.251Z,21.10
2022-10-24T18:25:28.227Z,21.45
2022-10-24T18:27:31.481Z,21.60
2022-10-24T18:29:34.231Z,21.62
2022-10-24T18:31:37.348Z,25.88
2022-10-24T18:33:43.555Z,22.10
2022-10-24T18:35:46.418Z,20.92
2022-10-24T18:37:50.131Z,22.27
2022-10-24T18:39:54.088Z,22.52
2022-10-24T18:42:04.718Z,22.02
2022-10-24T18:44:31.456Z,22.62
2022-10-24T18:46:34.920Z,22.10
2022-10-24T18:48:37.729Z,20.52
2022-10-24T18:50:40.720Z,21.40
2022-10-24T18:53:05.612Z,21.80
2022-10-24T18:55:20.059Z,21.33
2022-10-24T18:57:28.164Z,21.40
2022-10-24T18:59:32.672Z,22.33
2022-10-24T19:01:46.285Z,29.95
2022-10-24T19:03:49.859Z,23.12
2022-10-24T19:06:00.929Z,23.50
2022-10-24T19:08:04.001Z,20.60
2022-10-24T19:10:07.176Z,21.87
2022-10-24T19:12:10.420Z,27.90
2022-10-24T19:14:15.551Z,24.40
2022-10-24T19:16:30.067Z,25.75
2022-10-24T19:18:37.434Z,25.20
2022-10-24T19:20:40.175Z,21.87
2022-10-24T19:22:43.620Z,22.17
2022-10-24T19:24:46.444Z,25.40
2022-10-24T19:26:49.914Z,22.40
2022-10-24T19:28:52.511Z,22.80
2022-10-24T19:30:55.870Z,25.17
2022-10-24T19:32:58.238Z,22.58
2022-10-24T19:35:01.580Z,24.75
2022-10-24T19:37:05.359Z,21.08
2022-10-24T19:39:08.216Z,21.40
2022-10-24T19:41:12.160Z,21.92
2022-10-24T19:43:15.319Z,20.75
2022-10-24T19:45:20.263Z,22.10
2022-10-24T19:47:25.103Z,21.60
2022-10-24T19:49:28.203Z,20.55
2022-10-24T19:51:34.190Z,22.23
2022-10-24T19:53:39.371Z,20.80
2022-10-24T19:55:44.157Z,21.90
2022-10-24T19:57:47.069Z,22.48
2022-10-24T19:59:49.929Z,21.62
2022-10-24T20:01:55.752Z,25.15
2022-10-24T20:04:00.653Z,26.90
2022-10-24T20:06:03.975Z,26.00
2022-10-24T20:08:06.662Z,23.87
2022-10-24T20:10:09.808Z,24.87
2022-10-24T20:12:12.836Z,20.95
2022-10-24T20:14:15.538Z,22.77
2022-10-24T20:16:19.032Z,25.83
2022-10-24T20:18:23.191Z,25.65
2022-10-24T20:20:25.805Z,21.70
2022-10-24T20:22:28.489Z,21.80
2022-10-24T20:24:30.890Z,21.55
2022-10-24T20:26:34.162Z,20.95
2022-10-24T20:28:43.720Z,24.87
2022-10-24T20:30:47.601Z,22.83
2022-10-24T20:32:50.250Z,37.13
2022-10-24T20:34:52.832Z,45.38
2022-10-24T20:36:55.049Z,24.42
2022-10-24T20:39:01.375Z,24.65
2022-10-24T20:41:04.019Z,25.55
2022-10-24T20:43:07.329Z,22.95
2022-10-24T20:45:09.764Z,23.50
2022-10-24T20:47:12.577Z,27.10
2022-10-24T20:49:15.233Z,25.50
2022-10-24T20:51:19.831Z,24.77
2022-10-24T20:53:22.695Z,24.95
2022-10-24T20:55:39.614Z,23.20
2022-10-24T20:57:45.582Z,24.75
2022-10-24T20:59:48.097Z,24.75
2022-10-24T21:01:50.511Z,25.12
2022-10-24T21:03:54.088Z,27.17
2022-10-24T21:05:57.122Z,47.15
2022-10-24T21:07:59.731Z,28.73
2022-10-24T21:10:04.300Z,25.60
2022-10-24T21:12:07.673Z,27.58
2022-10-24T21:14:13.964Z,23.10
2022-10-24T21:16:16.415Z,23.65
2022-10-24T21:18:18.891Z,23.77
2022-10-24T21:20:21.163Z,24.80
2022-10-24T21:22:23.342Z,24.90
2022-10-24T21:24:25.851Z,24.77
2022-10-24T21:26:28.115Z,23.90
2022-10-24T21:28:30.392Z,22.40
2022-10-24T21:30:33.662Z,22.75
2022-10-24T21:32:35.890Z,23.55
2022-10-24T21:34:38.224Z,24.67
2022-10-24T21:36:40.687Z,23.12
2022-10-24T21:38:46.766Z,23.58
2022-10-24T21:40:48.925Z,23.58
2022-10-24T21:42:51.441Z,24.30
2022-10-24T21:44:53.722Z,23.87
2022-10-24T21:46:55.970Z,23.77
2022-10-24T21:48:58.440Z,23.35
2022-10-24T21:51:33.493Z,22.50
2022-10-24T21:53:47.848Z,22.27
2022-10-24T21:55:50.377Z,22.40
2022-10-24T21:57:52.599Z,22.77
2022-10-24T21:59:54.781Z,22.00
